Time;durP1;ratioP1;P1;durP2;ratioP2;P2;SDS_P1;SDS_P2;PMS_P1;PMS_P2;Temp;Humidity;BMP_temperature;BMP_pressure;BME280_temperature;BME280_humidity;BME280_pressure;Samples;Min_cycle;Max_cycle;Signal;HPM_P1;HPM_P2
2022/06/29 00:00:31;;;;;;;;;;;;;;;21.38;29.27;97889.00;5017095;28;955;-81
2022/06/29 00:02:56;;;;;;;;;;;;;;;21.36;29.33;97891.47;4982124;28;985;-80
2022/06/29 00:05:22;;;;;;;;;;;;;;;21.39;29.00;97901.09;5016745;28;1975;-80
2022/06/29 00:07:48;;;;;;;;;;;;;;;21.54;29.94;97896.63;5017020;28;929;-80
2022/06/29 00:10:13;;;;;;;;;;;;;;;21.84;29.80;97899.00;5016962;28;879;-80
2022/06/29 00:12:39;;;;;;;;;;;;;;;21.90;29.82;97895.63;5015508;28;1665;-80
2022/06/29 00:15:04;;;;;;;;;;;;;;;21.63;30.29;97893.97;5016585;28;841;-81
2022/06/29 00:17:30;;;;;;;;;;;;;;;21.66;29.93;97892.25;5016411;28;1013;-81
2022/06/29 00:19:56;;;;;;;;;;;;;;;21.67;29.57;97903.16;5017014;28;898;-81
2022/06/29 00:22:21;;;;;;;;;;;;;;;21.48;29.73;97890.72;4994973;28;907;-81
2022/06/29 00:24:47;;;;;;;;;;;;;;;21.46;29.95;97898.09;4994859;28;1910;-81
2022/06/29 00:27:12;;;;;;;;;;;;;;;21.53;29.54;97897.88;4994647;28;1105;-80
2022/06/29 00:29:38;;;;;;;;;;;;;;;21.42;29.58;97900.22;4994723;28;928;-81
2022/06/29 00:32:04;;;;;;;;;;;;;;;21.35;29.70;97906.88;4994927;28;982;-80
2022/06/29 00:34:30;;;;;;;;;;;;;;;21.40;29.71;97897.03;4994551;28;1090;-80
2022/06/29 00:36:55;;;;;;;;;;;;;;;21.39;29.64;97909.59;4994576;28;838;-80
2022/06/29 00:39:20;;;;;;;;;;;;;;;21.33;29.83;97909.34;4994950;28;885;-80
2022/06/29 00:41:46;;;;;;;;;;;;;;;21.38;29.68;97899.53;4994834;28;985;-80
2022/06/29 00:44:15;;;;;;;;;;;;;;;21.38;29.19;97910.84;4994662;28;1914;-80
2022/06/29 00:46:41;;;;;;;;;;;;;;;21.39;29.23;97901.09;4994610;28;918;-81
2022/06/29 00:49:07;;;;;;;;;;;;;;;21.35;29.16;97900.41;4994632;28;913;-81
2022/06/29 00:51:32;;;;;;;;;;;;;;;21.65;29.49;97902.78;4994821;28;930;-80
2022/06/29 00:53:57;;;;;;;;;;;;;;;21.92;29.15;97893.16;5011595;28;860;-81
2022/06/29 00:56:23;;;;;;;;;;;;;;;21.91;29.37;97898.00;5016439;28;928;-80
2022/06/29 00:58:48;;;;;;;;;;;;;;;21.66;29.25;97890.25;5019820;28;986;-80
2022/06/29 01:01:14;;;;;;;;;;;;;;;21.46;29.38;97889.59;5018474;28;913;-81
2022/06/29 01:03:39;;;;;;;;;;;;;;;21.39;29.33;97889.78;5020112;28;1902;-80
2022/06/29 01:06:05;;;;;;;;;;;;;;;21.46;29.39;97895.25;5019102;28;804;-81
2022/06/29 01:08:30;;;;;;;;;;;;;;;21.37;29.28;97886.63;5019889;28;953;-80
2022/06/29 01:10:56;;;;;;;;;;;;;;;21.43;29.19;97901.81;5019256;28;929;-79
2022/06/29 01:13:21;;;;;;;;;;;;;;;21.28;29.34;97902.16;5020042;28;986;-81
2022/06/29 01:15:47;;;;;;;;;;;;;;;21.30;29.36;97905.38;5019627;28;923;-80
2022/06/29 01:18:12;;;;;;;;;;;;;;;21.29;29.22;97908.59;5019221;28;984;-80
2022/06/29 01:20:37;;;;;;;;;;;;;;;21.22;29.41;97905.97;5019526;28;911;-81
2022/06/29 01:23:03;;;;;;;;;;;;;;;21.16;29.49;97900.06;5019080;28;990;-80
2022/06/29 01:25:28;;;;;;;;;;;;;;;21.16;29.61;97894.41;5018864;28;2049;-81
2022/06/29 01:27:54;;;;;;;;;;;;;;;21.22;29.32;97895.44;5019506;28;1226;-80
2022/06/29 01:30:19;;;;;;;;;;;;;;;21.37;29.31;97903.59;5019509;28;962;-80
2022/06/29 01:32:45;;;;;;;;;;;;;;;21.85;28.77;97905.47;5019442;28;870;-81
2022/06/29 01:35:11;;;;;;;;;;;;;;;21.99;28.37;97904.25;5019241;28;878;-81
2022/06/29 01:37:37;;;;;;;;;;;;;;;21.67;28.91;97905.97;5019498;28;910;-80
2022/06/29 01:40:03;;;;;;;;;;;;;;;21.57;29.16;97890.09;5018929;28;974;-80
2022/06/29 01:42:28;;;;;;;;;;;;;;;21.59;28.71;97907.41;5019435;28;971;-80
2022/06/29 01:44:53;;;;;;;;;;;;;;;21.39;29.17;97909.59;5019585;28;1983;-80
2022/06/29 01:47:19;;;;;;;;;;;;;;;21.33;29.18;97903.69;5019228;28;830;-80
2022/06/29 01:49:44;;;;;;;;;;;;;;;21.27;29.10;97909.06;5019021;28;931;-80
2022/06/29 01:52:10;;;;;;;;;;;;;;;21.20;29.20;97903.59;5019236;28;838;-80
2022/06/29 01:54:35;;;;;;;;;;;;;;;21.39;28.93;97912.44;5019070;28;906;-81
2022/06/29 01:57:01;;;;;;;;;;;;;;;21.28;28.93;97902.16;5019342;28;903;-80
2022/06/29 01:59:26;;;;;;;;;;;;;;;21.31;29.04;97901.31;5019311;28;921;-81
2022/06/29 02:01:52;;;;;;;;;;;;;;;21.30;28.85;97894.06;5018810;28;1053;-81
2022/06/29 02:04:17;;;;;;;;;;;;;;;21.28;29.00;97902.16;5019246;28;1918;-81
2022/06/29 02:06:42;;;;;;;;;;;;;;;21.66;28.63;97898.75;5019200;28;858;-80
2022/06/29 02:09:08;;;;;;;;;;;;;;;21.93;28.27;97901.19;5018341;28;953;-81
2022/06/29 02:11:33;;;;;;;;;;;;;;;21.79;28.46;97902.38;5018794;28;846;-80
2022/06/29 02:13:59;;;;;;;;;;;;;;;21.42;29.04;97906.69;5018418;28;906;-80
2022/06/29 02:16:24;;;;;;;;;;;;;;;21.56;28.92;97906.28;4999897;28;1004;-81
2022/06/29 02:18:50;;;;;;;;;;;;;;;21.51;28.98;97908.88;5018117;28;960;-81
2022/06/29 02:21:15;;;;;;;;;;;;;;;21.32;29.37;97907.75;5018686;28;843;-81
2022/06/29 02:23:41;;;;;;;;;;;;;;;21.39;29.55;97901.09;5017814;28;1985;-81
2022/06/29 02:26:06;;;;;;;;;;;;;;;21.49;29.38;97911.34;5000014;28;958;-80
2022/06/29 02:28:32;;;;;;;;;;;;;;;21.44;29.35;97903.38;5017845;28;1212;-81
2022/06/29 02:36:25;;;;;;;;;;;;;;;21.17;29.89;97906.53;5018468;28;891;-81
2022/06/29 02:38:50;;;;;;;;;;;;;;;21.10;30.09;97898.22;5017838;28;1062;-81
2022/06/29 02:41:16;;;;;;;;;;;;;;;21.26;29.86;97899.00;5018338;28;886;-81
2022/06/29 02:43:41;;;;;;;;;;;;;;;21.53;29.45;97900.72;5017615;28;1910;-81
2022/06/29 02:46:07;;;;;;;;;;;;;;;21.16;29.90;97905.72;5018151;28;935;-81
2022/06/29 02:48:35;;;;;;;;;;;;;;;21.40;29.55;97903.50;5017848;28;960;-81
2022/06/29 02:51:00;;;;;;;;;;;;;;;21.91;29.34;97902.88;5017711;28;946;-81
2022/06/29 02:53:26;;;;;;;;;;;;;;;22.00;29.05;97908.69;5017497;28;932;-81
2022/06/29 02:55:51;;;;;;;;;;;;;;;21.92;29.25;97905.28;5016612;28;1366;-80
2022/06/29 02:58:17;;;;;;;;;;;;;;;21.76;29.41;97914.63;5018021;28;949;-81
2022/06/29 03:00:42;;;;;;;;;;;;;;;21.61;29.44;97916.28;5018059;28;993;-80
2022/06/29 03:03:08;;;;;;;;;;;;;;;21.49;29.71;97922.66;5017353;28;894;-80
2022/06/29 03:05:33;;;;;;;;;;;;;;;21.39;30.03;97915.25;5017554;28;1898;-81
2022/06/29 03:07:58;;;;;;;;;;;;;;;21.47;30.03;97908.16;5017797;28;882;-80
2022/06/29 03:10:24;;;;;;;;;;;;;;;21.42;30.14;97906.69;5017579;28;874;-81
2022/06/29 03:12:49;;;;;;;;;;;;;;;21.44;30.03;97903.38;5016202;28;1251;-81
2022/06/29 03:15:15;;;;;;;;;;;;;;;21.27;30.32;97913.94;4998895;28;802;-81
2022/06/29 03:17:40;;;;;;;;;;;;;;;21.27;30.55;97906.22;5017318;28;853;-81
2022/06/29 03:20:06;;;;;;;;;;;;;;;21.39;30.36;97909.59;5016650;28;818;-81
2022/06/29 03:22:32;;;;;;;;;;;;;;;21.25;30.61;97907.94;5017335;28;929;-81
2022/06/29 03:24:58;;;;;;;;;;;;;;;21.31;30.46;97901.31;5017516;28;1914;-80
2022/06/29 03:27:23;;;;;;;;;;;;;;;21.36;30.46;97907.69;5017051;28;1042;-80
2022/06/29 03:29:49;;;;;;;;;;;;;;;21.41;30.36;97893.78;5017080;28;942;-80
2022/06/29 03:32:14;;;;;;;;;;;;;;;21.43;30.33;97896.94;5017426;28;967;-80
2022/06/29 03:34:40;;;;;;;;;;;;;;;21.31;30.59;97906.19;5017296;28;820;-80
2022/06/29 03:37:05;;;;;;;;;;;;;;;21.30;30.47;97905.38;5017593;28;1011;-80
2022/06/29 03:39:30;;;;;;;;;;;;;;;21.38;30.27;97905.97;5017241;28;898;-79
2022/06/29 03:41:56;;;;;;;;;;;;;;;21.36;30.24;97910.50;4995012;28;920;-79
2022/06/29 03:44:21;;;;;;;;;;;;;;;21.29;30.27;97909.41;4975333;28;1906;-80
2022/06/29 03:46:47;;;;;;;;;;;;;;;21.38;30.18;97910.84;4975784;28;1003;-79
2022/06/29 03:49:12;;;;;;;;;;;;;;;21.56;30.70;97916.81;4975472;28;942;-79
2022/06/29 03:51:38;;;;;;;;;;;;;;;21.90;30.35;97912.63;4975785;28;1001;-79
2022/06/29 03:54:03;;;;;;;;;;;;;;;21.96;29.99;97905.16;4975910;28;898;-80
2022/06/29 03:56:28;;;;;;;;;;;;;;;21.74;30.37;97914.25;4975365;28;954;-80
2022/06/29 03:58:54;;;;;;;;;;;;;;;21.47;30.46;97908.16;4975416;28;1231;-80
2022/06/29 04:01:19;;;;;;;;;;;;;;;21.37;30.53;97912.09;4959176;28;982;-80
2022/06/29 04:03:45;;;;;;;;;;;;;;;21.51;30.27;97908.88;4975590;28;1887;-79
2022/06/29 04:06:10;;;;;;;;;;;;;;;21.47;30.41;97911.00;4976107;28;917;-80
2022/06/29 04:08:37;;;;;;;;;;;;;;;21.35;30.49;97911.72;4975638;28;963;-80
2022/06/29 04:11:02;;;;;;;;;;;;;;;21.44;30.42;97909.06;4975280;28;965;-79
2022/06/29 04:13:28;;;;;;;;;;;;;;;21.38;30.53;97910.84;4951327;28;964;-79
2022/06/29 04:15:53;;;;;;;;;;;;;;;21.38;30.42;97910.84;5010931;28;922;-79
2022/06/29 04:18:19;;;;;;;;;;;;;;;21.29;30.40;97915.06;4994333;28;949;-79
2022/06/29 04:23:28;;;;;;;;;;;;;;;21.38;30.36;97913.66;4994383;28;1907;-80
2022/06/29 04:25:53;;;;;;;;;;;;;;;21.49;30.10;97914.97;4995010;28;1011;-80
2022/06/29 04:28:19;;;;;;;;;;;;;;;21.60;29.96;97914.66;4994274;28;1065;-80
2022/06/29 04:30:44;;;;;;;;;;;;;;;21.62;29.57;97903.69;4994926;28;944;-79
2022/06/29 04:33:10;;;;;;;;;;;;;;;21.37;30.05;97903.59;4998560;28;891;-80
2022/06/29 04:35:35;;;;;;;;;;;;;;;21.47;30.01;97903.31;4998261;28;921;-79
2022/06/29 04:38:01;;;;;;;;;;;;;;;21.43;29.73;97901.81;4982276;28;961;-79
2022/06/29 04:40:26;;;;;;;;;;;;;;;21.45;29.82;97911.47;4998331;28;882;-79
2022/06/29 04:42:52;;;;;;;;;;;;;;;21.37;30.22;97917.75;4998011;28;900;-80
2022/06/29 04:48:01;;;;;;;;;;;;;;;21.24;30.16;97918.47;4984238;28;953;-79
2022/06/29 04:50:27;;;;;;;;;;;;;;;21.31;30.23;97923.94;5019166;28;876;-80
2022/06/29 04:52:53;;;;;;;;;;;;;;;21.28;30.24;97924.78;4962639;28;957;-79
2022/06/29 04:55:18;;;;;;;;;;;;;;;21.38;30.23;97919.34;4978447;28;884;-80
2022/06/29 04:57:43;;;;;;;;;;;;;;;21.40;30.04;97922.50;4978609;28;950;-80
2022/06/29 05:00:09;;;;;;;;;;;;;;;21.48;29.92;97915.41;4978710;28;932;-80
2022/06/29 05:02:35;;;;;;;;;;;;;;;21.52;29.91;97921.78;4978562;28;994;-80
2022/06/29 05:05:00;;;;;;;;;;;;;;;21.52;29.72;97916.91;4945981;28;1902;-80
2022/06/29 05:07:26;;;;;;;;;;;;;;;21.57;29.57;97919.19;4978586;28;1530;-80
2022/06/29 05:09:51;;;;;;;;;;;;;;;21.43;29.61;97913.91;4978372;28;944;-79
2022/06/29 05:12:16;;;;;;;;;;;;;;;21.49;29.86;97914.16;4961538;28;2533;-80
2022/06/29 05:14:42;;;;;;;;;;;;;;;21.33;29.86;97927.13;4978193;28;1578;-80
2022/06/29 05:17:07;;;;;;;;;;;;;;;21.32;30.23;97924.75;4950819;28;1588;-79
2022/06/29 05:19:33;;;;;;;;;;;;;;;21.21;30.44;97930.66;4978030;28;1812;-80
2022/06/29 05:21:58;;;;;;;;;;;;;;;21.12;30.34;97922.00;4977834;28;1269;-79
2022/06/29 05:24:23;;;;;;;;;;;;;;;21.32;30.38;97919.88;4993227;28;1979;-79
2022/06/29 05:26:49;;;;;;;;;;;;;;;21.46;29.74;97912.25;5006096;28;1434;-78
2022/06/29 05:29:14;;;;;;;;;;;;;;;21.23;30.16;97914.00;5019350;28;1316;-80
2022/06/29 05:31:40;;;;;;;;;;;;;;;21.35;30.27;97917.38;5018878;28;1470;-80
2022/06/29 05:34:05;;;;;;;;;;;;;;;21.36;30.26;97924.66;4958068;29;1559;-80
2022/06/29 05:36:31;;;;;;;;;;;;;;;21.43;30.02;97918.78;4958567;29;1479;-80
2022/06/29 05:38:56;;;;;;;;;;;;;;;21.33;30.26;97921.47;4958077;28;1503;-80
2022/06/29 05:41:22;;;;;;;;;;;;;;;21.59;29.93;97919.53;4938987;29;1532;-80
2022/06/29 05:43:51;;;;;;;;;;;;;;;21.38;30.12;97928.63;4938445;29;1981;-80
2022/06/29 05:46:18;;;;;;;;;;;;;;;21.49;29.90;97926.28;4938863;29;1486;-80
2022/06/29 05:48:43;;;;;;;;;;;;;;;21.36;30.17;97935.97;4938770;29;1757;-79
2022/06/29 05:51:09;;;;;;;;;;;;;;;21.27;30.27;97928.88;4938962;29;1844;-81
2022/06/29 05:53:34;;;;;;;;;;;;;;;21.39;30.10;97923.75;4938414;29;1563;-80
2022/06/29 05:56:00;;;;;;;;;;;;;;;21.48;29.77;97933.19;4938431;29;1320;-79
2022/06/29 05:58:25;;;;;;;;;;;;;;;21.47;30.03;97925.16;4938067;29;1290;-71
2022/06/29 06:00:51;;;;;;;;;;;;;;;22.27;31.88;97922.47;4937020;29;1576;-77
2022/06/29 06:03:17;;;;;;;;;;;;;;;23.27;32.15;97928.56;4910735;29;1910;-75
2022/06/29 06:05:42;;;;;;;;;;;;;;;22.56;33.51;97936.56;4968365;28;964;-78
2022/06/29 06:08:08;;;;;;;;;;;;;;;22.79;32.55;97927.69;4961545;28;866;-79
2022/06/29 06:10:33;;;;;;;;;;;;;;;23.06;31.51;97923.63;4958279;29;811;-83
2022/06/29 06:12:59;;;;;;;;;;;;;;;23.16;30.86;97939.50;4957871;29;965;-79
2022/06/29 06:15:24;;;;;;;;;;;;;;;23.24;30.75;97935.16;4958151;29;814;-79
2022/06/29 06:17:50;;;;;;;;;;;;;;;23.17;30.54;97929.72;4978481;28;1291;-78
2022/06/29 06:20:16;;;;;;;;;;;;;;;23.24;30.85;97940.81;4996753;28;814;-78
2022/06/29 06:22:41;;;;;;;;;;;;;;;23.50;30.06;97937.91;4997016;28;751;-78
2022/06/29 06:25:07;;;;;;;;;;;;;;;23.71;29.63;97945.69;4996235;28;1915;-81
2022/06/29 06:27:33;;;;;;;;;;;;;;;23.10;30.24;97929.94;4996410;28;1082;-78
2022/06/29 06:29:59;;;;;;;;;;;;;;;23.24;30.18;97926.63;5011486;28;1368;-80
2022/06/29 06:32:24;;;;;;;;;;;;;;;23.28;30.22;97929.34;5003578;28;834;-82
2022/06/29 06:34:50;;;;;;;;;;;;;;;23.44;29.53;97925.56;4958003;29;1169;-84
2022/06/29 06:37:16;;;;;;;;;;;;;;;22.92;30.28;97935.44;4931463;29;887;-80
2022/06/29 06:41:21;;;;;;;;;;;;;;;22.70;30.53;97933.28;4923190;29;785;-84
2022/06/29 06:42:27;;;;;;;;;;;;;;;23.25;29.80;97925.38;4922638;29;1211;-83
2022/06/29 06:44:53;;;;;;;;;;;;;;;23.01;30.30;97927.81;4931139;29;1959;-81
2022/06/29 06:47:18;;;;;;;;;;;;;;;22.75;30.68;97915.69;4937479;29;1268;-84
2022/06/29 06:49:44;;;;;;;;;;;;;;;23.15;29.67;97918.00;4879288;29;1279;-84
2022/06/29 06:52:09;;;;;;;;;;;;;;;23.07;29.85;97919.53;4788984;30;1291;-81
2022/06/29 06:54:35;;;;;;;;;;;;;;;22.82;30.59;97931.66;4772879;30;910;-84
2022/06/29 06:57:00;;;;;;;;;;;;;;;22.91;30.39;97928.19;4757153;30;894;-77
2022/06/29 06:59:26;;;;;;;;;;;;;;;23.13;30.34;97929.03;4771128;30;1037;-79
2022/06/29 07:01:51;;;;;;;;;;;;;;;23.40;30.86;97929.31;4757042;30;983;-82
2022/06/29 07:04:17;;;;;;;;;;;;;;;23.08;31.71;97938.94;4757070;30;1982;-82
2022/06/29 07:06:42;;;;;;;;;;;;;;;23.19;30.80;97938.56;4790032;30;1242;-81
2022/06/29 07:09:07;;;;;;;;;;;;;;;23.03;30.74;97941.53;4837155;29;1268;-79
2022/06/29 07:11:33;;;;;;;;;;;;;;;23.23;30.23;97933.56;4789654;30;857;-81
2022/06/29 07:13:58;;;;;;;;;;;;;;;22.95;30.43;97946.69;4790370;30;1041;-79
2022/06/29 07:16:30;;;;;;;;;;;;;;;23.03;30.26;97935.88;4802583;29;885;-80
2022/06/29 07:18:55;;;;;;;;;;;;;;;22.93;30.76;97942.69;4807531;29;1855;-79
2022/06/29 07:21:21;;;;;;;;;;;;;;;22.99;30.26;97940.88;4842071;29;1557;-78
2022/06/29 07:23:46;;;;;;;;;;;;;;;22.63;30.62;97942.00;4856240;29;1910;-80
2022/06/29 07:26:12;;;;;;;;;;;;;;;23.09;30.02;97945.41;4866033;29;1371;-81
2022/06/29 07:28:39;;;;;;;;;;;;;;;23.24;29.60;97940.03;4899184;29;1304;-81
2022/06/29 07:31:05;;;;;;;;;;;;;;;23.15;29.93;97949.25;4899658;29;1205;-72
2022/06/29 07:33:30;;;;;;;;;;;;;;;22.88;31.77;97952.56;4867224;29;1094;-72
2022/06/29 07:35:56;;;;;;;;;;;;;;;23.23;32.77;97944.13;4898540;29;1064;-72
2022/06/29 07:38:21;;;;;;;;;;;;;;;23.30;32.92;97956.03;4898567;29;989;-72
2022/06/29 07:40:47;;;;;;;;;;;;;;;23.50;33.35;97949.28;4898524;29;1106;-73
2022/06/29 07:43:12;;;;;;;;;;;;;;;23.81;33.53;97961.56;4876971;29;1056;-83
2022/06/29 07:45:38;;;;;;;;;;;;;;;23.71;32.64;97951.38;4902447;29;1911;-84
2022/06/29 07:48:03;;;;;;;;;;;;;;;23.51;32.57;97959.38;4898313;29;1528;-83
2022/06/29 07:50:29;;;;;;;;;;;;;;;23.67;32.14;97962.06;4888947;29;990;-86
2022/06/29 07:52:54;;;;;;;;;;;;;;;23.00;32.76;97959.47;4899934;29;1379;-82
2022/06/29 07:55:20;;;;;;;;;;;;;;;23.58;31.84;97950.63;4893284;29;764;-80
2022/06/29 07:57:45;;;;;;;;;;;;;;;24.10;30.93;97955.63;4914570;29;955;-84
2022/06/29 08:00:11;;;;;;;;;;;;;;;24.02;30.83;97959.19;4893575;29;1213;-80
2022/06/29 08:02:39;;;;;;;;;;;;;;;23.95;30.04;97954.56;4904166;29;869;-80
2022/06/29 08:05:05;;;;;;;;;;;;;;;23.85;30.00;97958.59;4930841;29;1976;-82
2022/06/29 08:07:30;;;;;;;;;;;;;;;24.08;29.86;97945.97;4927011;29;984;-77
2022/06/29 08:09:56;;;;;;;;;;;;;;;24.30;30.37;97951.66;4928979;29;960;-75
2022/06/29 08:12:21;;;;;;;;;;;;;;;23.84;31.16;97949.28;4926056;29;1070;-76
2022/06/29 08:14:47;;;;;;;;;;;;;;;23.54;31.44;97953.56;4939968;29;1057;-76
2022/06/29 08:17:12;;;;;;;;;;;;;;;23.60;31.51;97951.72;4929060;29;958;-79
2022/06/29 08:19:38;;;;;;;;;;;;;;;23.49;31.07;97953.38;4988498;28;1759;-76
2022/06/29 08:22:03;;;;;;;;;;;;;;;23.43;31.53;97955.22;5006665;28;1288;-83
2022/06/29 08:24:29;;;;;;;;;;;;;;;24.35;30.00;97943.34;4998864;28;1968;-82
2022/06/29 08:26:54;;;;;;;;;;;;;;;24.74;29.61;97957.28;4982786;28;790;-82
2022/06/29 08:29:20;;;;;;;;;;;;;;;24.54;29.45;97957.66;4995828;28;1250;-82
2022/06/29 08:31:46;;;;;;;;;;;;;;;24.37;29.42;97954.25;5002779;28;1206;-83
2022/06/29 08:34:13;;;;;;;;;;;;;;;24.40;29.43;97956.16;4959501;29;932;-82
2022/06/29 08:36:39;;;;;;;;;;;;;;;24.03;30.07;97950.19;4919430;29;1342;-84
2022/06/29 08:39:04;;;;;;;;;;;;;;;24.26;29.48;97956.69;4887373;29;853;-82
2022/06/29 08:41:29;;;;;;;;;;;;;;;24.63;29.03;97957.69;4902845;29;802;-82
2022/06/29 08:43:56;;;;;;;;;;;;;;;24.72;28.71;97957.75;4886784;29;1895;-79
2022/06/29 08:46:21;;;;;;;;;;;;;;;24.08;29.34;97951.66;4886998;29;966;-82
2022/06/29 08:48:47;;;;;;;;;;;;;;;24.35;29.04;97949.03;4921804;29;1236;-79
2022/06/29 08:51:14;;;;;;;;;;;;;;;24.30;29.05;97948.81;4904602;29;982;-81
2022/06/29 08:53:40;;;;;;;;;;;;;;;24.52;29.19;97951.66;4905179;29;1112;-81
2022/06/29 08:56:06;;;;;;;;;;;;;;;24.37;29.38;97949.34;4905691;29;1243;-78
2022/06/29 08:58:31;;;;;;;;;;;;;;;24.42;28.91;97948.75;4921047;29;1283;-78
2022/06/29 09:00:57;;;;;;;;;;;;;;;24.62;29.02;97951.22;4905349;29;1258;-79
2022/06/29 09:03:23;;;;;;;;;;;;;;;24.03;29.64;97943.72;4920912;29;1903;-79
2022/06/29 09:05:49;;;;;;;;;;;;;;;24.09;29.51;97944.75;4919611;29;878;-78
2022/06/29 09:08:17;;;;;;;;;;;;;;;23.74;29.91;97947.63;4924226;29;899;-79
2022/06/29 09:10:42;;;;;;;;;;;;;;;23.44;30.26;97936.91;4940183;29;775;-80
2022/06/29 09:13:08;;;;;;;;;;;;;;;23.85;29.93;97942.34;4923923;29;1417;-81
2022/06/29 09:15:34;;;;;;;;;;;;;;;24.16;29.14;97941.63;4924071;29;909;-80
2022/06/29 09:18:00;;;;;;;;;;;;;;;23.50;30.01;97940.75;4938957;29;885;-87
2022/06/29 09:20:38;;;;;;;;;;;;;;;24.20;28.76;97936.59;4884479;29;955;-83
2022/06/29 09:23:04;;;;;;;;;;;;;;;24.34;28.48;97936.03;4859179;29;1123;-78
2022/06/29 09:25:30;;;;;;;;;;;;;;;24.08;29.41;97928.91;4877995;29;1965;-80
2022/06/29 09:27:55;;;;;;;;;;;;;;;24.02;29.68;97930.78;4867466;29;1239;-84
2022/06/29 09:30:27;;;;;;;;;;;;;;;24.82;28.25;97930.91;4924102;29;1025;-83
2022/06/29 09:33:03;;;;;;;;;;;;;;;24.69;28.19;97927.38;4931389;29;941;-81
2022/06/29 09:35:29;;;;;;;;;;;;;;;24.35;28.66;97912.06;4938460;29;926;-81
2022/06/29 09:38:03;;;;;;;;;;;;;;;24.31;28.81;97914.22;4884714;29;1232;-80
2022/06/29 09:40:29;;;;;;;;;;;;;;;24.47;28.76;97909.59;4880538;29;1176;-81
2022/06/29 09:42:54;;;;;;;;;;;;;;;24.27;28.58;97901.41;4870844;29;1065;-80
2022/06/29 09:45:19;;;;;;;;;;;;;;;24.52;28.53;97906.13;4866196;29;1972;-83
2022/06/29 09:47:45;;;;;;;;;;;;;;;23.80;29.42;97906.00;4872636;29;954;-80
2022/06/29 09:50:10;;;;;;;;;;;;;;;24.71;28.54;97896.41;4871068;29;1207;-87
2022/06/29 09:52:37;;;;;;;;;;;;;;;24.59;28.88;97898.09;4927105;29;899;-84
2022/06/29 09:55:03;;;;;;;;;;;;;;;24.81;27.76;97912.25;4888533;29;1630;-89
2022/06/29 09:57:29;;;;;;;;;;;;;;;24.20;28.79;97899.63;4867154;29;1390;-86
2022/06/29 10:02:48;;;;;;;;;;;;;;;24.48;29.14;97894.09;4833868;29;1275;-77
2022/06/29 10:05:14;;;;;;;;;;;;;;;24.45;29.36;97892.19;4813977;29;1907;-75
2022/06/29 10:07:43;;;;;;;;;;;;;;;24.16;30.30;97885.53;4824356;29;2275;-73
2022/06/29 10:10:12;;;;;;;;;;;;;;;24.13;30.98;97895.00;4891283;29;984;-77
2022/06/29 10:16:00;;;;;;;;;;;;;;;23.86;32.78;97892.00;4862061;29;2059;-73
2022/06/29 10:18:41;;;;;;;;;;;;;;;23.69;33.16;97902.75;4862649;29;995;-77
2022/06/29 10:21:19;;;;;;;;;;;;;;;23.43;32.98;97901.25;4863948;29;1506;-78
2022/06/29 10:23:47;;;;;;;;;;;;;;;23.17;32.81;97889.97;4865216;29;1899;-78
2022/06/29 10:26:37;;;;;;;;;;;;;;;23.18;32.48;97896.44;4844189;29;1232;-78
2022/06/29 10:29:05;;;;;;;;;;;;;;;22.93;32.47;97897.31;4826294;29;1140;-78
2022/06/29 10:31:49;;;;;;;;;;;;;;;22.91;32.03;97902.66;4807932;29;1022;-77
2022/06/29 10:34:26;;;;;;;;;;;;;;;22.85;31.94;97903.19;4832223;29;959;-77
2022/06/29 10:37:01;;;;;;;;;;;;;;;22.83;31.61;97900.00;4854819;29;979;-77
2022/06/29 10:39:26;;;;;;;;;;;;;;;22.93;31.31;97897.31;4866274;29;956;-78
2022/06/29 10:44:54;;;;;;;;;;;;;;;22.67;31.32;97885.94;4867832;29;1895;-78
2022/06/29 10:47:22;;;;;;;;;;;;;;;22.70;31.23;97885.06;4865463;29;964;-78
2022/06/29 10:49:48;;;;;;;;;;;;;;;22.61;31.48;97891.41;4881126;29;903;-77
2022/06/29 10:52:14;;;;;;;;;;;;;;;22.74;31.19;97891.41;4880957;29;934;-77
2022/06/29 10:54:39;;;;;;;;;;;;;;;22.71;30.85;97903.66;4865684;29;1052;-77
2022/06/29 10:57:04;;;;;;;;;;;;;;;22.62;31.01;97895.03;4905864;29;921;-77
2022/06/29 10:59:37;;;;;;;;;;;;;;;22.73;30.62;97898.31;4937208;29;971;-78
2022/06/29 11:02:15;;;;;;;;;;;;;;;22.83;30.33;97887.88;4976695;28;1292;-77
2022/06/29 11:04:41;;;;;;;;;;;;;;;22.60;30.47;97897.53;4976112;28;1969;-78
2022/06/29 11:12:34;;;;;;;;;;;;;;;22.42;30.69;97881.09;4975571;28;882;-78
2022/06/29 11:17:45;;;;;;;;;;;;;;;22.36;30.78;97875.19;4956583;29;1074;-77
2022/06/29 11:20:17;;;;;;;;;;;;;;;22.47;30.59;97879.72;4956678;29;1043;-77
2022/06/29 11:22:52;;;;;;;;;;;;;;;22.51;30.32;97877.56;4956675;29;968;-78
2022/06/29 11:25:17;;;;;;;;;;;;;;;22.51;30.08;97883.25;4956200;29;1887;-78
2022/06/29 11:27:42;;;;;;;;;;;;;;;22.40;30.25;97888.47;4940039;29;1099;-77
2022/06/29 11:30:09;;;;;;;;;;;;;;;22.33;30.50;97887.44;4955952;29;969;-78
2022/06/29 11:32:52;;;;;;;;;;;;;;;22.31;30.62;97881.41;4940359;29;898;-77
2022/06/29 11:35:19;;;;;;;;;;;;;;;22.26;30.38;97879.16;4962900;28;1061;-78
2022/06/29 11:37:48;;;;;;;;;;;;;;;22.35;30.65;97876.44;4975047;28;1027;-77
2022/06/29 11:40:14;;;;;;;;;;;;;;;22.39;30.36;97881.22;4955591;28;852;-78
2022/06/29 11:45:28;;;;;;;;;;;;;;;22.39;30.47;97878.38;4955804;29;1902;-78
2022/06/29 11:47:54;;;;;;;;;;;;;;;22.14;30.81;97870.66;4956092;29;962;-78
2022/06/29 11:50:22;;;;;;;;;;;;;;;22.24;30.49;97876.00;4955892;29;1115;-77
2022/06/29 11:52:50;;;;;;;;;;;;;;;22.26;30.65;97856.47;4957250;28;1821;-78
2022/06/29 11:55:16;;;;;;;;;;;;;;;22.19;30.78;97862.38;4918335;29;1134;-78
2022/06/29 11:57:41;;;;;;;;;;;;;;;22.41;30.32;97867.38;4917898;29;1520;-78
2022/06/29 12:00:07;;;;;;;;;;;;;;;22.24;30.64;97861.81;4917581;29;1626;-78
2022/06/29 12:02:34;;;;;;;;;;;;;;;22.30;30.30;97862.84;4918096;29;906;-78
2022/06/29 12:05:00;;;;;;;;;;;;;;;22.31;30.36;97853.06;4917606;29;1910;-78
2022/06/29 12:07:27;;;;;;;;;;;;;;;22.29;30.43;97860.47;4917762;29;966;-78
2022/06/29 12:09:53;;;;;;;;;;;;;;;22.25;30.42;97849.22;4917590;29;1709;-78
2022/06/29 12:12:18;;;;;;;;;;;;;;;22.24;30.56;97852.53;4917357;29;1576;-78
2022/06/29 12:14:44;;;;;;;;;;;;;;;22.23;30.65;97857.41;4917417;29;1644;-78
2022/06/29 12:17:10;;;;;;;;;;;;;;;22.22;30.82;97855.00;4917801;29;986;-78
2022/06/29 12:19:35;;;;;;;;;;;;;;;22.23;30.64;97851.72;4904455;29;1824;-78
2022/06/29 12:22:01;;;;;;;;;;;;;;;22.15;30.79;97853.19;4901635;29;1641;-78
2022/06/29 12:24:26;;;;;;;;;;;;;;;22.30;30.70;97850.69;4890231;29;1990;-78
2022/06/29 12:26:52;;;;;;;;;;;;;;;22.25;30.43;97842.78;4883211;29;1576;-78
2022/06/29 12:29:18;;;;;;;;;;;;;;;22.19;30.61;97844.59;4914246;29;1261;-78
2022/06/29 12:31:44;;;;;;;;;;;;;;;22.20;30.79;97840.50;4900939;29;1599;-79
2022/06/29 12:34:10;;;;;;;;;;;;;;;22.27;30.57;97843.88;4898319;29;1653;-79
2022/06/29 12:36:35;;;;;;;;;;;;;;;22.33;30.50;97842.09;4909585;29;1615;-79
2022/06/29 12:39:01;;;;;;;;;;;;;;;22.23;30.72;97839.59;4912947;29;1425;-78
2022/06/29 12:41:27;;;;;;;;;;;;;;;22.70;30.54;97839.69;4922293;29;1406;-77
2022/06/29 12:43:52;;;;;;;;;;;;;;;22.96;30.20;97828.31;4924084;29;2021;-77
2022/06/29 12:46:17;;;;;;;;;;;;;;;23.23;29.92;97834.22;4944877;29;979;-79
2022/06/29 12:48:43;;;;;;;;;;;;;;;22.61;30.87;97836.72;4947525;29;1569;-79
2022/06/29 12:51:09;;;;;;;;;;;;;;;22.85;30.29;97829.44;4971062;28;967;-78
2022/06/29 12:53:35;;;;;;;;;;;;;;;22.42;31.30;97826.44;4980342;28;1515;-79
2022/06/29 12:56:00;;;;;;;;;;;;;;;22.38;31.23;97828.56;4959275;29;933;-79
2022/06/29 12:58:26;;;;;;;;;;;;;;;22.36;31.06;97821.31;4939903;29;1242;-79
2022/06/29 13:00:51;;;;;;;;;;;;;;;22.17;31.32;97830.84;4864696;29;953;-79
2022/06/29 13:03:17;;;;;;;;;;;;;;;22.42;30.64;97815.09;4883147;29;1487;-79
2022/06/29 13:05:42;;;;;;;;;;;;;;;22.19;31.06;97822.69;4864042;29;1903;-80
2022/06/29 13:08:08;;;;;;;;;;;;;;;22.30;30.95;97817.47;4825483;29;1547;-80
2022/06/29 13:10:33;;;;;;;;;;;;;;;22.28;31.05;97814.31;4846093;29;1535;-80
2022/06/29 13:13:00;;;;;;;;;;;;;;;22.33;31.12;97822.25;4827488;29;1325;-81
2022/06/29 13:15:26;;;;;;;;;;;;;;;22.24;31.23;97819.31;4827171;29;1004;-71
2022/06/29 13:17:52;;;;;;;;;;;;;;;22.21;31.53;97808.88;4826452;29;1737;-78
2022/06/29 13:20:18;;;;;;;;;;;;;;;22.13;31.46;97807.53;4820596;29;1611;-79
2022/06/29 13:22:44;;;;;;;;;;;;;;;22.18;31.33;97815.47;4816793;29;1366;-79
2022/06/29 13:25:10;;;;;;;;;;;;;;;22.02;31.58;97812.69;4815833;29;1907;-78
2022/06/29 13:27:36;;;;;;;;;;;;;;;22.14;31.35;97816.81;4826546;29;1346;-79